Time;durP1;ratioP1;P1;durP2;ratioP2;P2;SDS_P1;SDS_P2;PMS_P1;PMS_P2;Temp;Humidity;BMP_temperature;BMP_pressure;BME280_temperature;BME280_humidity;BME280_pressure;Samples;Min_cycle;Max_cycle;Signal;HPM_P1;HPM_P2
2022/12/25 00:01:27;;;;;;;13.32;3.72;;;;;;;5.77;100.00;101745.13;5023458;28;20053;-76
2022/12/25 00:03:57;;;;;;;18.95;4.40;;;;;;;5.75;100.00;101736.44;5025047;28;20454;-78
2022/12/25 00:06:26;;;;;;;27.40;5.45;;;;;;;5.75;100.00;101739.91;5017836;28;20924;-78
2022/12/25 00:08:55;;;;;;;10.82;3.75;;;;;;;5.77;100.00;101747.69;5025101;28;20089;-78
2022/12/25 00:11:23;;;;;;;15.30;4.10;;;;;;;5.83;100.00;101745.53;5022809;28;20152;-78
2022/12/25 00:13:53;;;;;;;13.38;3.17;;;;;;;5.84;100.00;101757.56;5020972;28;20687;-78
2022/12/25 00:16:25;;;;;;;6.10;3.50;;;;;;;5.86;100.00;101764.59;5019387;28;20042;-77
2022/12/25 00:18:57;;;;;;;10.20;4.05;;;;;;;5.90;100.00;101757.09;5021259;28;20055;-77
2022/12/25 00:21:26;;;;;;;9.30;3.80;;;;;;;5.94;100.00;101770.25;5022132;28;20136;-78
2022/12/25 00:23:56;;;;;;;11.25;7.07;;;;;;;5.99;100.00;101774.00;5019280;28;20068;-78
2022/12/25 00:26:25;;;;;;;7.93;4.35;;;;;;;6.04;100.00;101780.31;5021081;28;20763;-77
2022/12/25 00:28:56;;;;;;;9.57;4.20;;;;;;;6.13;100.00;101774.00;5017085;28;20049;-78
2022/12/25 00:31:26;;;;;;;8.65;5.05;;;;;;;6.22;100.00;101772.03;5032002;28;20046;-75
2022/12/25 00:33:55;;;;;;;18.92;4.60;;;;;;;6.25;100.00;101767.06;5020785;28;20045;-76
2022/12/25 00:36:24;;;;;;;12.15;4.10;;;;;;;6.25;100.00;101772.19;5023949;28;21126;-75
2022/12/25 00:38:53;;;;;;;7.13;3.58;;;;;;;6.31;100.00;101769.16;5025623;28;20049;-76
2022/12/25 00:42:17;;;;;;;5.85;2.55;;;;;;;6.34;100.00;101774.47;5031988;28;20502;-75
2022/12/25 00:44:14;;;;;;;24.73;4.88;;;;;;;6.49;100.00;101793.44;5029395;28;20081;-78
2022/12/25 00:46:43;;;;;;;30.35;5.97;;;;;;;6.55;100.00;101792.91;5030274;28;20624;-77
2022/12/25 00:49:13;;;;;;;5.80;3.15;;;;;;;6.62;100.00;101805.34;5028673;28;20072;-78
2022/12/25 00:51:41;;;;;;;6.90;2.63;;;;;;;6.71;100.00;101811.06;5022472;28;20112;-79
2022/12/25 00:54:10;;;;;;;65.18;8.07;;;;;;;6.84;100.00;101807.59;5031598;28;20057;-79
2022/12/25 00:56:38;;;;;;;14.93;3.72;;;;;;;6.88;100.00;101799.25;5027266;28;20054;-79
2022/12/25 00:59:07;;;;;;;4.85;2.85;;;;;;;6.89;100.00;101807.09;5019292;28;20068;-80
2022/12/25 01:01:37;;;;;;;42.70;6.22;;;;;;;7.00;100.00;101811.97;5025779;28;20087;-79
2022/12/25 01:04:07;;;;;;;39.63;7.32;;;;;;;7.09;100.00;101810.84;5024984;28;20053;-79
2022/12/25 01:06:36;;;;;;;67.30;6.68;;;;;;;7.17;100.00;101806.19;5025899;28;20069;-80
2022/12/25 01:11:50;;;;;;;95.47;10.63;;;;;;;7.30;100.00;101821.53;5027881;28;20060;-80
2022/12/25 01:14:19;;;;;;;61.35;7.65;;;;;;;7.36;100.00;101825.31;5025273;28;20430;-80
2022/12/25 01:16:49;;;;;;;31.85;3.60;;;;;;;7.42;100.00;101815.34;5024164;28;20125;-82
2022/12/25 01:19:17;;;;;;;17.40;3.78;;;;;;;7.53;100.00;101814.28;5024446;28;20526;-80
2022/12/25 01:21:46;;;;;;;62.45;8.63;;;;;;;7.66;100.00;101811.63;5027013;28;20045;-79
2022/12/25 01:24:15;;;;;;;62.83;7.30;;;;;;;7.74;100.00;101799.19;5028450;28;20060;-79
2022/12/25 01:26:43;;;;;;;47.85;6.95;;;;;;;7.80;100.00;101799.56;5024479;28;20499;-77
2022/12/25 01:29:12;;;;;;;109.40;11.27;;;;;;;7.87;100.00;101795.66;5024404;28;20057;-81
2022/12/25 01:31:41;;;;;;;63.92;8.30;;;;;;;7.89;100.00;101783.72;5020040;28;20126;-81
2022/12/25 01:34:11;;;;;;;50.72;6.97;;;;;;;7.91;100.00;101788.19;5020022;28;20511;-81
2022/12/25 01:36:40;;;;;;;58.30;6.30;;;;;;;7.86;100.00;101781.88;5026400;28;20427;-81
2022/12/25 01:39:09;;;;;;;73.15;10.27;;;;;;;7.82;100.00;101794.50;5028161;28;20128;-82
2022/12/25 01:41:37;;;;;;;114.50;11.93;;;;;;;7.81;100.00;101778.16;5030711;28;20441;-81
2022/12/25 01:44:08;;;;;;;87.80;13.23;;;;;;;7.83;100.00;101785.94;5027637;28;20045;-81
2022/12/25 01:46:36;;;;;;;94.40;14.52;;;;;;;7.85;100.00;101785.25;5027385;28;20045;-82
2022/12/25 01:49:08;;;;;;;95.88;15.23;;;;;;;7.88;100.00;101766.47;5024303;28;20050;-82
2022/12/25 01:51:42;;;;;;;52.38;10.95;;;;;;;7.89;100.00;101758.84;5025050;28;20054;-81
2022/12/25 01:54:14;;;;;;;56.00;7.95;;;;;;;7.90;100.00;101750.34;5023053;28;20052;-80
2022/12/25 01:56:46;;;;;;;50.20;9.70;;;;;;;7.92;100.00;101761.59;5025715;28;20053;-81
2022/12/25 01:59:17;;;;;;;36.40;6.00;;;;;;;7.93;100.00;101755.66;5021466;28;20498;-81
2022/12/25 02:01:46;;;;;;;35.67;6.47;;;;;;;7.94;100.00;101744.53;5029915;28;20056;-82
2022/12/25 02:04:22;;;;;;;60.95;6.22;;;;;;;7.95;100.00;101748.91;5029023;28;20071;-82
2022/12/25 02:06:53;;;;;;;63.42;8.48;;;;;;;7.98;100.00;101758.47;5025696;28;20639;-82
2022/12/25 02:09:22;;;;;;;41.55;7.28;;;;;;;8.01;100.00;101765.50;5024815;28;20093;-81
2022/12/25 02:11:59;;;;;;;57.45;4.80;;;;;;;8.00;100.00;101787.81;5027392;28;20049;-80
2022/12/25 02:14:31;;;;;;;53.28;5.18;;;;;;;7.97;100.00;101798.84;5028078;28;20053;-81
2022/12/25 02:17:07;;;;;;;48.13;7.03;;;;;;;7.97;100.00;101803.06;5031070;28;20506;-81
2022/12/25 02:19:57;;;;;;;21.70;6.65;;;;;;;7.97;100.00;101795.34;5026155;28;20067;-82
2022/12/25 02:22:40;;;;;;;41.33;6.53;;;;;;;7.94;100.00;101788.34;5016744;28;20050;-82
2022/12/25 02:25:21;;;;;;;30.05;5.68;;;;;;;7.85;100.00;101784.34;5017864;28;20691;-80
2022/12/25 02:28:10;;;;;;;25.58;5.55;;;;;;;7.96;100.00;101802.19;5020467;28;20064;-81
2022/12/25 02:30:44;;;;;;;17.05;5.30;;;;;;;8.00;100.00;101813.59;5029074;28;20103;-81
2022/12/25 02:36:07;;;;;;;30.17;5.00;;;;;;;8.05;100.00;101821.56;5024126;28;20064;-81
2022/12/25 02:39:56;;;;;;;13.65;3.67;;;;;;;8.07;100.00;101833.75;5026364;28;20108;-82
2022/12/25 02:41:32;;;;;;;23.77;4.88;;;;;;;8.05;100.00;101843.06;5026334;28;20214;-82
2022/12/25 03:06:45;;;;;;;18.05;3.88;;;;;;;8.09;100.00;101870.81;5030052;28;20060;-81
2022/12/25 03:12:19;;;;;;;21.88;4.15;;;;;;;8.07;100.00;101869.84;5024387;28;20446;-82
2022/12/25 03:17:36;;;;;;;11.43;4.35;;;;;;;8.08;100.00;101905.09;5024542;28;20060;-82
2022/12/25 03:28:23;;;;;;;13.57;3.08;;;;;;;7.89;100.00;101904.84;5025938;28;20579;-82
2022/12/25 03:31:12;;;;;;;14.00;3.75;;;;;;;7.85;100.00;101919.22;5023164;28;20049;-82
2022/12/25 03:37:23;;;;;;;15.35;3.72;;;;;;;7.85;100.00;101911.50;4949526;28;20131;-82
2022/12/25 04:36:33;;;;;;;12.18;4.30;;;;;;;8.03;100.00;101916.84;5024135;28;20510;-80
2022/12/25 04:39:01;;;;;;;8.80;4.07;;;;;;;8.04;100.00;101904.84;5025228;28;20195;-78
2022/12/25 04:41:31;;;;;;;15.75;4.95;;;;;;;8.07;100.00;101908.50;5021271;28;20049;-79
2022/12/25 04:44:00;;;;;;;11.27;5.78;;;;;;;8.10;100.00;101913.81;5023765;28;20053;-80
2022/12/25 04:46:29;;;;;;;9.15;5.10;;;;;;;8.12;100.00;101917.38;5018713;28;20053;-80
2022/12/25 04:48:57;;;;;;;7.82;4.60;;;;;;;8.07;100.00;101908.50;5025471;28;20054;-79
2022/12/25 04:51:26;;;;;;;14.50;4.32;;;;;;;8.16;100.00;101928.78;5027487;28;20041;-81
2022/12/25 04:53:55;;;;;;;7.57;4.25;;;;;;;8.19;100.00;101921.22;5026891;28;20494;-81
2022/12/25 04:56:24;;;;;;;13.25;5.47;;;;;;;8.24;100.00;101926.63;5028593;28;20057;-79
2022/12/25 04:58:54;;;;;;;13.15;4.13;;;;;;;8.30;100.00;101921.84;5026970;28;20045;-79
2022/12/25 05:01:23;;;;;;;15.93;4.72;;;;;;;8.37;100.00;101918.81;5026660;28;20052;-80
2022/12/25 05:03:52;;;;;;;33.05;7.32;;;;;;;8.41;100.00;101909.56;5022766;28;20751;-80
2022/12/25 05:06:21;;;;;;;25.48;5.70;;;;;;;8.45;100.00;101903.78;5023047;28;20057;-80
2022/12/25 05:08:49;;;;;;;22.00;5.30;;;;;;;8.50;100.00;101899.78;5025144;28;20053;-81
2022/12/25 05:11:18;;;;;;;52.78;9.68;;;;;;;8.47;100.00;101899.59;5020973;28;20049;-79
2022/12/25 05:13:47;;;;;;;50.53;8.82;;;;;;;8.47;100.00;101895.31;5019554;28;20053;-80
2022/12/25 05:16:19;;;;;;;30.35;7.43;;;;;;;8.47;100.00;101910.81;5024835;28;20050;-79
2022/12/25 05:18:50;;;;;;;17.73;6.03;;;;;;;8.48;100.00;101906.56;5017255;28;20049;-80
2022/12/25 05:21:19;;;;;;;32.42;9.95;;;;;;;8.48;100.00;101916.88;5022704;28;20581;-79
2022/12/25 05:23:51;;;;;;;15.23;7.15;;;;;;;8.47;100.00;101920.25;5020973;28;20656;-79
2022/12/25 05:26:21;;;;;;;15.50;7.70;;;;;;;8.44;100.00;101926.13;5027106;28;20073;-78
2022/12/25 05:28:50;;;;;;;9.80;6.40;;;;;;;8.41;100.00;101928.53;5025644;28;20060;-79
2022/12/25 05:31:21;;;;;;;17.85;6.88;;;;;;;8.38;100.00;101931.78;5026516;28;20052;-78
2022/12/25 05:33:51;;;;;;;19.02;8.15;;;;;;;8.36;100.00;101928.22;5028647;28;20057;-77
2022/12/25 05:36:20;;;;;;;19.20;6.65;;;;;;;8.38;100.00;101921.47;5030318;28;20081;-79
2022/12/25 05:38:49;;;;;;;20.42;8.07;;;;;;;8.36;100.00;101917.91;5019315;28;20075;-79
2022/12/25 05:41:17;;;;;;;20.33;8.98;;;;;;;8.34;100.00;101935.00;5024008;28;20038;-79
2022/12/25 05:43:46;;;;;;;23.23;9.13;;;;;;;8.32;100.00;101925.41;5027705;28;20061;-78
2022/12/25 05:46:15;;;;;;;23.30;9.88;;;;;;;8.31;100.00;101927.06;5028493;28;20050;-78
2022/12/25 05:48:45;;;;;;;25.00;9.50;;;;;;;8.28;100.00;101921.75;5020167;28;20589;-79
2022/12/25 05:51:15;;;;;;;23.55;9.23;;;;;;;8.28;100.00;101926.00;5023834;28;20042;-79
2022/12/25 05:53:44;;;;;;;25.17;9.95;;;;;;;8.27;100.00;101921.63;5027230;28;20499;-79
2022/12/25 05:56:13;;;;;;;15.82;9.35;;;;;;;8.27;100.00;101922.56;5020485;28;20096;-79
2022/12/25 05:58:42;;;;;;;16.45;8.80;;;;;;;8.28;100.00;101910.53;5023364;28;20053;-80
2022/12/25 06:01:17;;;;;;;23.00;9.52;;;;;;;8.26;100.00;101910.44;5027520;28;20108;-80
2022/12/25 06:03:48;;;;;;;23.15;9.52;;;;;;;8.26;100.00;101905.28;5028161;28;20116;-79
2022/12/25 06:06:16;;;;;;;16.55;9.13;;;;;;;8.26;100.00;101909.56;5021662;28;20602;-79
2022/12/25 06:08:45;;;;;;;19.65;8.95;;;;;;;8.23;100.00;101905.13;5027333;28;20056;-80
2022/12/25 06:11:15;;;;;;;15.63;8.20;;;;;;;8.22;100.00;101910.19;5025968;28;20057;-79
2022/12/25 06:13:44;;;;;;;14.85;8.73;;;;;;;8.21;100.00;101916.16;5027060;28;20046;-79
2022/12/25 06:16:13;;;;;;;19.20;9.80;;;;;;;8.17;100.00;101921.09;5029103;28;20679;-79
2022/12/25 06:18:46;;;;;;;23.77;10.82;;;;;;;8.16;100.00;101921.91;5027490;28;20130;-79
2022/12/25 06:21:17;;;;;;;26.75;10.48;;;;;;;8.11;100.00;101914.75;5022694;28;20061;-79
2022/12/25 06:23:45;;;;;;;20.95;10.98;;;;;;;8.08;100.00;101925.72;5022019;28;20077;-79
2022/12/25 06:26:16;;;;;;;21.88;10.05;;;;;;;8.07;100.00;101923.09;5022850;28;20061;-79
2022/12/25 06:28:45;;;;;;;19.58;10.43;;;;;;;8.07;100.00;101923.97;5027751;28;20518;-79
2022/12/25 06:31:16;;;;;;;21.85;9.70;;;;;;;8.04;100.00;101921.22;5022418;28;20499;-79
2022/12/25 06:33:44;;;;;;;26.77;9.98;;;;;;;8.00;100.00;101926.09;5033571;28;20625;-78
2022/12/25 06:36:16;;;;;;;22.77;9.15;;;;;;;7.94;100.00;101929.19;5031385;28;20056;-79
2022/12/25 06:38:45;;;;;;;17.07;9.27;;;;;;;7.89;100.00;101938.34;5025014;28;20120;-79
2022/12/25 06:41:15;;;;;;;20.27;8.02;;;;;;;7.89;100.00;101931.50;5027807;28;20041;-79
2022/12/25 06:43:44;;;;;;;12.85;6.63;;;;;;;7.86;100.00;101941.63;5030854;28;20049;-79
2022/12/25 06:46:13;;;;;;;16.08;6.32;;;;;;;7.85;100.00;101923.50;5027081;28;20300;-79
2022/12/25 06:48:47;;;;;;;16.65;7.93;;;;;;;7.78;100.00;101918.78;5027438;28;20041;-79
2022/12/25 06:51:18;;;;;;;15.90;6.90;;;;;;;7.76;100.00;101918.69;5024587;28;20085;-80
2022/12/25 06:53:47;;;;;;;12.10;6.05;;;;;;;7.79;100.00;101928.28;5025475;28;20519;-79
2022/12/25 06:56:17;;;;;;;10.20;5.68;;;;;;;7.79;100.00;101925.69;5025655;28;20041;-80
2022/12/25 06:58:46;;;;;;;11.38;5.80;;;;;;;7.78;100.00;101934.25;5027479;28;20511;-79
2022/12/25 07:01:19;;;;;;;14.23;6.15;;;;;;;7.78;100.00;101932.56;5022928;28;20069;-79
2022/12/25 07:03:50;;;;;;;11.63;5.68;;;;;;;7.78;100.00;101935.13;5025697;28;20419;-79
2022/12/25 07:06:20;;;;;;;14.32;5.28;;;;;;;7.76;100.00;101942.78;5026035;28;20119;-79
2022/12/25 07:08:49;;;;;;;9.93;5.35;;;;;;;7.73;100.00;101944.28;5028018;28;20145;-79
2022/12/25 07:11:18;;;;;;;8.88;4.90;;;;;;;7.71;100.00;101940.72;5027124;28;20060;-79
2022/12/25 07:13:46;;;;;;;10.98;4.03;;;;;;;7.71;100.00;101944.19;5026278;28;20045;-79
2022/12/25 07:16:15;;;;;;;14.52;5.20;;;;;;;7.71;100.00;101948.44;5027292;28;20455;-79
2022/12/25 07:18:44;;;;;;;9.75;5.35;;;;;;;7.71;100.00;101948.44;5025438;28;20053;-79
2022/12/25 07:21:14;;;;;;;6.70;4.28;;;;;;;7.68;100.00;101950.84;5022680;28;20049;-78
2022/12/25 07:23:47;;;;;;;8.95;4.03;;;;;;;7.66;100.00;101949.88;5025666;28;20100;-79
2022/12/25 07:26:17;;;;;;;10.35;4.78;;;;;;;7.62;100.00;101938.47;5023986;28;20565;-79
2022/12/25 07:28:46;;;;;;;8.90;4.40;;;;;;;7.65;100.00;101954.13;5025441;28;20499;-79
2022/12/25 07:31:16;;;;;;;7.60;4.18;;;;;;;7.63;100.00;101944.50;5022219;28;20187;-79
2022/12/25 07:33:45;;;;;;;6.28;3.88;;;;;;;7.61;100.00;101938.41;5028768;28;20054;-79
2022/12/25 07:36:14;;;;;;;9.68;4.28;;;;;;;7.58;100.00;101931.34;5026642;28;20555;-79
2022/12/25 07:38:45;;;;;;;8.38;4.38;;;;;;;7.53;100.00;101932.75;5029162;28;20068;-79
2022/12/25 07:41:13;;;;;;;6.97;4.32;;;;;;;7.55;100.00;101928.59;5025510;28;20103;-79
2022/12/25 07:43:42;;;;;;;7.22;4.47;;;;;;;7.57;100.00;101914.13;5023799;28;20060;-79
2022/12/25 07:46:11;;;;;;;10.13;4.05;;;;;;;7.58;100.00;101907.28;5025383;28;20049;-79
2022/12/25 07:48:40;;;;;;;6.70;4.05;;;;;;;7.57;100.00;101901.25;5021247;28;20042;-78
2022/12/25 07:51:12;;;;;;;9.70;4.18;;;;;;;7.53;100.00;101896.72;5024983;28;20057;-78
2022/12/25 07:53:41;;;;;;;6.93;3.75;;;;;;;7.51;100.00;101898.28;5029208;28;20515;-79
2022/12/25 07:56:15;;;;;;;7.63;3.75;;;;;;;7.50;100.00;101900.00;5021693;28;20585;-79
2022/12/25 07:58:43;;;;;;;6.35;3.42;;;;;;;7.50;100.00;101899.09;5027659;28;21028;-79
2022/12/25 08:01:15;;;;;;;8.18;3.80;;;;;;;7.52;100.00;101905.25;5024705;28;20466;-79
2022/12/25 08:03:44;;;;;;;7.03;4.07;;;;;;;7.55;100.00;101908.00;5024131;28;20084;-79
2022/12/25 08:06:12;;;;;;;8.80;4.05;;;;;;;7.56;100.00;101909.78;5022624;28;20054;-78
2022/12/25 08:08:41;;;;;;;15.13;4.93;;;;;;;7.56;100.00;101902.06;5025252;28;20050;-78
2022/12/25 08:11:12;;;;;;;13.52;5.95;;;;;;;7.57;100.00;101903.81;5003068;28;20053;-79
2022/12/25 08:13:40;;;;;;;17.50;7.18;;;;;;;7.59;100.00;101912.53;5007975;28;20052;-79
2022/12/25 08:16:11;;;;;;;18.02;6.68;;;;;;;7.60;100.00;101923.72;5006940;28;20072;-79
2022/12/25 08:18:41;;;;;;;17.77;8.32;;;;;;;7.61;100.00;101910.94;5004774;28;20652;-78
2022/12/25 08:21:12;;;;;;;15.00;6.18;;;;;;;7.62;100.00;101912.72;5009034;28;20648;-78
2022/12/25 08:23:43;;;;;;;16.55;6.88;;;;;;;7.63;100.00;101909.34;4997189;28;20073;-79
2022/12/25 08:26:16;;;;;;;13.27;6.13;;;;;;;7.66;100.00;101914.69;5007812;28;20057;-79
2022/12/25 08:28:45;;;;;;;12.35;5.55;;;;;;;7.69;100.00;101913.97;5012066;28;20095;-79
2022/12/25 08:31:19;;;;;;;13.10;5.68;;;;;;;7.71;100.00;101913.25;5005475;28;20053;-79
2022/12/25 08:33:49;;;;;;;10.57;5.22;;;;;;;7.71;100.00;101918.41;5006841;28;20042;-78
2022/12/25 08:36:18;;;;;;;7.65;4.20;;;;;;;7.70;100.00;101921.81;5015643;28;20569;-78
2022/12/25 08:38:47;;;;;;;9.90;5.00;;;;;;;7.72;100.00;101932.22;5008734;28;20484;-77
2022/12/25 08:41:18;;;;;;;9.10;4.15;;;;;;;7.70;100.00;101929.53;5006344;28;20061;-78
2022/12/25 08:43:46;;;;;;;7.63;4.10;;;;;;;7.69;100.00;101945.75;5002315;28;20056;-78
2022/12/25 08:46:15;;;;;;;6.47;3.63;;;;;;;7.71;100.00;101939.03;5000514;28;20058;-77
2022/12/25 08:48:44;;;;;;;17.08;4.90;;;;;;;7.72;100.00;101927.94;5009334;28;20034;-78
2022/12/25 08:51:24;;;;;;;10.00;4.82;;;;;;;7.74;100.00;101913.47;5001691;28;20554;-78
2022/12/25 08:53:54;;;;;;;7.97;4.00;;;;;;;7.71;100.00;101913.25;5005666;28;20057;-79
2022/12/25 08:56:24;;;;;;;16.40;4.38;;;;;;;7.68;100.00;101918.25;5006113;28;20053;-79
2022/12/25 08:58:52;;;;;;;11.05;4.55;;;;;;;7.71;100.00;101910.69;5006127;28;20064;-79
2022/12/25 09:01:21;;;;;;;12.82;5.07;;;;;;;7.73;100.00;101913.38;5006295;28;20061;-77
2022/12/25 09:03:49;;;;;;;10.02;3.83;;;;;;;7.72;100.00;101909.91;5008033;28;20053;-79
2022/12/25 09:06:18;;;;;;;6.28;3.20;;;;;;;7.74;100.00;101900.59;5010659;28;20112;-78
2022/12/25 09:08:53;;;;;;;11.00;3.97;;;;;;;7.78;100.00;101898.19;5014271;28;20492;-78
2022/12/25 09:11:30;;;;;;;11.05;4.35;;;;;;;7.81;100.00;101898.34;5029539;28;20057;-79
2022/12/25 09:13:59;;;;;;;5.80;3.25;;;;;;;7.80;100.00;101897.47;5025734;28;20057;-78
2022/12/25 09:16:27;;;;;;;7.13;3.28;;;;;;;7.79;100.00;101889.63;5027571;28;20141;-78
2022/12/25 09:18:57;;;;;;;7.45;3.47;;;;;;;7.73;100.00;101880.75;5025020;28;20048;-78
2022/12/25 09:21:26;;;;;;;11.45;3.38;;;;;;;7.73;100.00;101885.91;5030174;28;20431;-78
2022/12/25 09:23:54;;;;;;;8.98;3.70;;;;;;;7.74;100.00;101891.94;5025370;28;20197;-78
2022/12/25 09:26:23;;;;;;;11.30;3.55;;;;;;;7.74;100.00;101895.44;5022770;28;20049;-78
2022/12/25 09:28:53;;;;;;;7.68;3.42;;;;;;;7.74;100.00;101899.66;5025018;28;20859;-77
2022/12/25 09:31:22;;;;;;;5.93;2.47;;;;;;;7.74;100.00;101903.16;5026164;28;20049;-77
2022/12/25 09:33:52;;;;;;;5.95;2.70;;;;;;;7.74;100.00;101897.09;5029261;28;20055;-77
2022/12/25 09:36:22;;;;;;;6.93;3.10;;;;;;;7.76;100.00;101893.84;5028404;28;20538;-77
2022/12/25 09:38:50;;;;;;;5.53;2.30;;;;;;;7.79;100.00;101884.47;5028194;28;20049;-77
2022/12/25 09:41:25;;;;;;;5.60;2.72;;;;;;;7.78;100.00;101872.41;5024429;28;20104;-77
2022/12/25 09:44:01;;;;;;;4.55;2.90;;;;;;;7.74;100.00;101867.09;5032733;28;20090;-77
2022/12/25 09:46:39;;;;;;;5.65;3.13;;;;;;;7.69;100.00;101863.31;5026232;28;20052;-78
2022/12/25 09:49:18;;;;;;;5.57;2.80;;;;;;;7.70;100.00;101849.66;5025379;28;20506;-78
2022/12/25 09:51:52;;;;;;;6.57;3.28;;;;;;;7.71;100.00;101854.00;5023687;28;20053;-78
2022/12/25 09:54:25;;;;;;;8.20;4.50;;;;;;;7.74;100.00;101843.91;5022675;28;20057;-77
2022/12/25 09:56:54;;;;;;;7.57;3.60;;;;;;;7.75;100.00;101840.50;5026735;28;20053;-77
2022/12/25 09:59:26;;;;;;;5.35;2.78;;;;;;;7.74;100.00;101836.16;5025622;28;20103;-77
2022/12/25 10:02:14;;;;;;;5.57;1.73;;;;;;;7.76;100.00;101842.31;5027162;28;20057;-77
2022/12/25 10:04:59;;;;;;;2.75;1.75;;;;;;;7.76;100.00;101844.88;5027833;28;20048;-77
2022/12/25 10:07:39;;;;;;;1.92;1.45;;;;;;;7.79;100.00;101857.06;5025682;28;20079;-76
2022/12/25 10:10:25;;;;;;;6.60;1.92;;;;;;;7.80;100.00;101873.38;5028097;28;20085;-76
2022/12/25 10:13:03;;;;;;;1.42;0.98;;;;;;;7.80;100.00;101875.97;5028655;28;20554;-76
2022/12/25 10:15:51;;;;;;;6.13;1.80;;;;;;;7.80;100.00;101874.28;5024383;28;20046;-76
2022/12/25 10:18:48;;;;;;;3.15;1.67;;;;;;;7.79;100.00;101879.31;5021967;28;20431;-77
2022/12/25 10:21:19;;;;;;;5.78;1.42;;;;;;;7.78;100.00;101868.13;5026569;28;20056;-76
2022/12/25 10:23:51;;;;;;;2.90;1.27;;;;;;;7.78;100.00;101877.56;5022151;28;20053;-76
2022/12/25 10:26:23;;;;;;;5.15;1.35;;;;;;;7.78;100.00;101882.72;5028496;28;20543;-77
2022/12/25 10:28:59;;;;;;;1.95;1.17;;;;;;;7.78;100.00;101888.75;5025575;28;20057;-77
2022/12/25 10:31:34;;;;;;;2.05;1.60;;;;;;;7.75;100.00;101888.59;5027192;28;20554;-77
2022/12/25 10:34:03;;;;;;;2.22;1.15;;;;;;;7.72;100.00;101888.41;5030405;28;20050;-77
2022/12/25 10:36:35;;;;;;;2.25;1.25;;;;;;;7.73;100.00;101885.91;5030911;28;20045;-77
2022/12/25 10:39:03;;;;;;;1.23;0.70;;;;;;;7.75;100.00;101881.72;5031594;28;20041;-77
2022/12/25 10:41:58;;;;;;;4.38;0.93;;;;;;;7.73;100.00;101880.75;5029462;28;20508;-77
2022/12/25 10:44:27;;;;;;;3.85;1.42;;;;;;;7.75;100.00;101862.81;5025355;28;20049;-78
2022/12/25 10:46:58;;;;;;;2.65;1.10;;;;;;;7.72;100.00;101853.22;5023842;28;20550;-77
2022/12/25 10:49:31;;;;;;;2.22;1.20;;;;;;;7.71;100.00;101861.75;5029122;28;20708;-77
2022/12/25 10:51:59;;;;;;;;;;;;;;;7.65;100.00;101871.69;5025268;28;20215;-77
2022/12/25 10:54:29;;;;;;;9.77;1.40;;;;;;;7.62;100.00;101862.88;5026671;28;19928;-77
2022/12/25 10:57:00;;;;;;;17.27;1.83;;;;;;;7.59;100.00;101865.28;5024889;28;20068;-77
2022/12/25 10:59:30;;;;;;;3.75;1.30;;;;;;;7.55;100.00;101864.22;5025822;28;20045;-77
2022/12/25 11:02:15;;;;;;;5.47;0.88;;;;;;;7.54;100.00;101862.44;5025791;28;20050;-77
2022/12/25 11:04:44;;;;;;;1.30;1.00;;;;;;;7.49;100.00;101858.69;5024869;28;20046;-77
2022/12/25 11:07:23;;;;;;;2.78;1.10;;;;;;;7.49;100.00;101849.28;5021641;28;20546;-77
2022/12/25 11:09:53;;;;;;;5.47;1.15;;;;;;;7.42;100.00;101848.81;5024615;28;20057;-77
2022/12/25 11:12:27;;;;;;;3.60;1.20;;;;;;;7.40;100.00;101840.09;5023833;28;20537;-77
2022/12/25 11:14:57;;;;;;;9.05;1.70;;;;;;;7.43;100.00;101827.44;5025510;28;20081;-77
2022/12/25 11:17:28;;;;;;;3.58;1.73;;;;;;;7.46;100.00;101822.47;5025077;28;20048;-77
2022/12/25 11:19:58;;;;;;;6.40;3.65;;;;;;;7.49;100.00;101830.34;5029452;28;20053;-77
2022/12/25 11:22:28;;;;;;;4.88;2.85;;;;;;;7.52;100.00;101836.59;5023021;28;20060;-77
2022/12/25 11:24:57;;;;;;;6.57;3.42;;;;;;;7.59;100.00;101834.38;5025583;28;20140;-77
2022/12/25 11:27:27;;;;;;;8.10;4.57;;;;;;;7.62;100.00;101839.72;5021934;28;20057;-76
2022/12/25 11:30:00;;;;;;;7.60;3.97;;;;;;;7.63;100.00;101831.16;5025324;28;20530;-77
2022/12/25 11:32:35;;;;;;;7.05;3.35;;;;;;;7.68;100.00;101828.06;5030915;28;20081;-78
2022/12/25 11:35:04;;;;;;;7.05;3.88;;;;;;;7.69;100.00;101826.38;5025898;28;20049;-78
2022/12/25 11:37:39;;;;;;;14.93;4.20;;;;;;;7.68;100.00;101820.34;5025516;28;20054;-77
2022/12/25 11:40:15;;;;;;;7.43;3.20;;;;;;;7.67;100.00;101823.75;5025359;28;20056;-77
2022/12/25 11:42:48;;;;;;;6.20;3.40;;;;;;;7.70;100.00;101823.91;5025152;28;20041;-78
2022/12/25 11:45:17;;;;;;;;;;;;;;;7.69;100.00;101819.53;5025057;28;20049;-77
2022/12/25 11:47:52;;;;;;;5.30;2.85;;;;;;;7.70;100.00;101817.88;5023108;28;20405;-77
2022/12/25 11:50:27;;;;;;;4.80;2.90;;;;;;;7.71;100.00;101809.34;5022968;28;20038;-77
2022/12/25 11:52:58;;;;;;;6.22;3.00;;;;;;;7.68;100.00;101806.59;5030156;28;20107;-77
2022/12/25 11:55:36;;;;;;;5.63;3.10;;;;;;;7.72;100.00;101801.69;5030942;28;20059;-77
2022/12/25 11:58:15;;;;;;;7.53;2.58;;;;;;;7.73;100.00;101798.31;5026190;28;20107;-77
2022/12/25 12:00:47;;;;;;;6.93;2.42;;;;;;;7.70;100.00;101786.97;5022974;28;21146;-77
2022/12/25 12:03:21;;;;;;;4.18;2.05;;;;;;;7.74;100.00;101782.06;5021954;28;20056;-77
2022/12/25 12:05:54;;;;;;;5.55;2.55;;;;;;;7.74;100.00;101766.63;5023149;28;20053;-77
2022/12/25 12:08:23;;;;;;;4.68;2.00;;;;;;;7.73;100.00;101782.84;5027406;28;20735;-77
2022/12/25 12:11:16;;;;;;;3.78;2.20;;;;;;;7.71;100.00;101789.59;5021447;28;20467;-76
2022/12/25 12:13:57;;;;;;;5.05;2.30;;;;;;;7.70;100.00;101774.06;5026336;28;20081;-78
2022/12/25 12:16:26;;;;;;;4.05;2.17;;;;;;;7.72;100.00;101768.22;5024872;28;20049;-77
2022/12/25 12:18:56;;;;;;;6.93;3.75;;;;;;;7.73;100.00;101767.41;5021204;28;20545;-76
2022/12/25 12:21:27;;;;;;;5.03;2.67;;;;;;;7.72;100.00;101763.06;5021098;28;20057;-78
2022/12/25 12:24:06;;;;;;;6.05;2.10;;;;;;;7.73;100.00;101766.50;5027608;28;20053;-77
2022/12/25 12:26:39;;;;;;;3.97;2.00;;;;;;;7.74;100.00;101761.47;5022075;28;20593;-77
2022/12/25 12:29:22;;;;;;;4.32;1.63;;;;;;;7.67;100.00;101748.13;5027032;28;20510;-78
2022/12/25 12:31:51;;;;;;;;;;;;;;;7.74;100.00;101763.13;5032635;28;20584;-77
2022/12/25 12:34:25;;;;;;;2.00;1.38;;;;;;;7.75;100.00;101754.63;5018675;28;19932;-77
2022/12/25 12:37:00;;;;;;;3.63;1.73;;;;;;;7.78;100.00;101766.78;5023180;28;20045;-77
2022/12/25 12:39:35;;;;;;;2.83;1.58;;;;;;;7.79;100.00;101765.97;5024522;28;20073;-77
2022/12/25 12:42:14;;;;;;;1.92;1.30;;;;;;;7.78;100.00;101769.34;5021085;28;20057;-76
2022/12/25 12:44:43;;;;;;;2.92;1.20;;;;;;;7.76;100.00;101762.44;5025240;28;20675;-77
2022/12/25 12:47:32;;;;;;;1.60;1.00;;;;;;;7.73;100.00;101756.22;5019803;28;20045;-77
2022/12/25 12:50:03;;;;;;;1.55;1.00;;;;;;;7.72;100.00;101769.91;5022615;28;20060;-76
2022/12/25 12:52:34;;;;;;;3.03;1.00;;;;;;;7.71;100.00;101761.25;5021365;28;20052;-76
2022/12/25 12:55:05;;;;;;;3.13;1.35;;;;;;;7.72;100.00;101762.19;5023358;28;20132;-76
2022/12/25 12:57:38;;;;;;;1.67;0.90;;;;;;;7.71;100.00;101769.00;5020723;28;20060;-78
2022/12/25 13:00:08;;;;;;;1.10;0.70;;;;;;;7.70;100.00;101767.22;5023396;28;20100;-76
2022/12/25 13:03:08;;;;;;;3.75;1.23;;;;;;;7.69;100.00;101777.44;5025371;28;20045;-77
2022/12/25 13:05:44;;;;;;;2.95;1.40;;;;;;;7.68;100.00;101779.13;5024013;28;20103;-77
2022/12/25 13:08:28;;;;;;;2.90;1.25;;;;;;;7.65;100.00;101784.13;5031511;28;20081;-77
2022/12/25 13:11:08;;;;;;;1.48;0.95;;;;;;;7.66;100.00;101775.56;5022232;28;20061;-77
2022/12/25 13:13:40;;;;;;;2.20;1.30;;;;;;;7.68;100.00;101771.41;5024121;28;20052;-76
2022/12/25 13:16:17;;;;;;;3.00;1.35;;;;;;;7.71;100.00;101781.88;5025206;28;20517;-77
2022/12/25 13:18:46;;;;;;;2.78;1.05;;;;;;;7.74;100.00;101761.47;5024914;28;20045;-78
2022/12/25 13:21:21;;;;;;;1.10;0.90;;;;;;;7.75;100.00;101755.50;5022341;28;20046;-77
2022/12/25 13:23:56;;;;;;;1.98;1.08;;;;;;;7.78;100.00;101748.75;5021747;28;20053;-77
2022/12/25 13:26:24;;;;;;;2.70;0.85;;;;;;;7.79;100.00;101753.06;5025349;28;20049;-77